Nyk Virgo — 9V5456 — position and weather

sailwx.info

Track history (hours):
 
Tides and Currents Weather Stations Pressure Air Temp Water Temp Dewpoint Dewpoint Depression Visibility Wind Speed Wind Dir Waves Ship Positions

Nyk Virgo

Last reported at 2017-Dec-14 03:35 UTC. Time now 2017-Dec-17 19:49 UTC.
Position N 01°15' E 104°03'.

Length 338 m; draft 12.2 m.

Type: Ship (hazmat cat A). MMSI: 563025600.

Date/timePositionNaut miles runAvg speedWind from/ knotsBaromVisibWave heightAir tempDewpointWater temp
2017-Dec-14 03:35N 01°15' E 104°03'217.6
2017-Dec-14 03:28N 01°15' E 104°01'816.5
2017-Dec-14 03:00N 01°13' E 103°54'510.8
2017-Dec-14 02:30N 01°13' E 103°48'4 8.5
2017-Dec-14 02:00N 01°17' E 103°47'0 0.2
2017-Dec-14 01:28N 01°17' E 103°47'0 0.0
2017-Dec-14 00:58N 01°17' E 103°47'0 0.0
2017-Dec-14 00:28N 01°17' E 103°47'0 0.0
2017-Dec-13 23:52N 01°17' E 103°47'0 0.0
2017-Dec-13 23:28N 01°17' E 103°47'0 0.0
2017-Dec-13 22:58N 01°17' E 103°47'0 0.0
2017-Dec-13 22:28N 01°17' E 103°47'0 0.0
2017-Dec-13 21:58N 01°17' E 103°47'0 0.0
2017-Dec-13 21:28N 01°17' E 103°47'0 0.0
2017-Dec-13 20:58N 01°17' E 103°47'0 0.0
2017-Dec-13 20:28N 01°17' E 103°47'0 0.0
2017-Dec-13 19:58N 01°17' E 103°47'0 0.0
2017-Dec-13 19:28N 01°17' E 103°47'0 0.0
2017-Dec-13 18:58N 01°17' E 103°47'0 0.0
2017-Dec-13 18:28N 01°17' E 103°47'0 0.0
2017-Dec-13 17:58N 01°17' E 103°47'0 0.0
2017-Dec-13 17:28N 01°17' E 103°47'0 0.0
2017-Dec-13 16:58N 01°17' E 103°47'0 0.0
2017-Dec-13 16:28N 01°17' E 103°47'0 0.0
2017-Dec-13 15:58N 01°17' E 103°47'0 0.0
2017-Dec-13 15:28N 01°17' E 103°47'0 0.0
2017-Dec-13 14:58N 01°17' E 103°47'0 0.0
2017-Dec-13 14:28N 01°17' E 103°47'0 0.0
2017-Dec-13 13:58N 01°17' E 103°47'0 0.0
2017-Dec-13 13:28N 01°17' E 103°47'0 0.0
2017-Dec-13 12:58N 01°17' E 103°47'0 0.0
2017-Dec-13 12:28N 01°17' E 103°47'0 0.0
2017-Dec-13 11:58N 01°17' E 103°47'0 0.0
2017-Dec-13 11:28N 01°17' E 103°47'0 0.0
2017-Dec-13 10:58N 01°17' E 103°47'0 0.0
2017-Dec-13 10:28N 01°17' E 103°47'0 0.0
2017-Dec-13 09:58N 01°17' E 103°47'0 0.0
2017-Dec-13 09:28N 01°17' E 103°47'0 0.0
2017-Dec-13 08:58N 01°17' E 103°47'0 0.0
2017-Dec-13 08:28N 01°17' E 103°47'0 0.0
2017-Dec-13 07:58N 01°17' E 103°47'0 0.0
2017-Dec-13 07:28N 01°17' E 103°47'0 0.0
2017-Dec-13 06:58N 01°17' E 103°47'0 0.0
2017-Dec-13 06:28N 01°17' E 103°47'0 0.0
2017-Dec-13 05:58N 01°17' E 103°47'0 0.0
2017-Dec-13 05:28N 01°17' E 103°47'0 0.0
2017-Dec-13 04:58N 01°17' E 103°47'0 0.0
2017-Dec-13 04:28N 01°17' E 103°47'0 0.0
2017-Dec-13 03:58N 01°17' E 103°47'0 0.0
2017-Dec-13 03:28N 01°17' E 103°47'0 0.0
2017-Dec-13 02:55N 01°17' E 103°47'0 0.0
2017-Dec-13 02:28N 01°17' E 103°47'0 0.0
2017-Dec-13 01:58N 01°17' E 103°47'0 0.0
2017-Dec-13 01:28N 01°17' E 103°47'0 0.0
2017-Dec-13 00:58N 01°17' E 103°47'0 0.0
2017-Dec-13 00:25N 01°17' E 103°47'0 0.0
2017-Dec-12 23:58N 01°17' E 103°47'0 0.0
2017-Dec-12 23:28N 01°17' E 103°47'0 0.0
2017-Dec-12 22:58N 01°17' E 103°47'0 0.0
2017-Dec-12 22:28N 01°17' E 103°47'0 0.0
2017-Dec-12 21:58N 01°17' E 103°47'0 0.0
2017-Dec-12 21:28N 01°17' E 103°47'0 0.0
2017-Dec-12 20:58N 01°17' E 103°47'0 0.0
2017-Dec-12 20:28N 01°17' E 103°47'0 0.2
2017-Dec-12 20:00N 01°17' E 103°47'1 2.3
2017-Dec-12 19:30N 01°15' E 103°46'3 5.8
2017-Dec-12 19:00N 01°15' E 103°44'510.6
2017-Dec-12 18:30N 01°12' E 103°39'4 7.2
2017-Dec-12 18:00N 01°12' E 103°35'2 4.2
2017-Dec-12 17:30N 01°11' E 103°33'2 4.2
2017-Dec-12 17:00N 01°10' E 103°32'3 5.4
2017-Dec-12 16:30N 01°09' E 103°29'3 6.5
2017-Dec-12 16:00N 01°11' E 103°26'3 6.7
2017-Dec-12 15:30N 01°13' E 103°24'3 6.6
2017-Dec-12 15:00N 01°15' E 103°21'3 5.9
2017-Dec-12 14:29N 01°17' E 103°19'3 7.0
2017-Dec-12 14:00N 01°19' E 103°16'  
Track history (hours):
 
Tides and Currents Weather Stations Pressure Air Temp Water Temp Dewpoint Dewpoint Depression Visibility Wind Speed Wind Dir Waves Ship Positions

Nyk Virgo

Last reported at 2017-Dec-14 03:35 UTC. Time now 2017-Dec-17 19:49 UTC.
Position N 01°15' E 104°03'.

Length 338 m; draft 12.2 m.

Type: Ship (hazmat cat A). MMSI: 563025600.

Date/timePositionNaut miles runAvg speedWind from/ knotsBaromVisibWave heightAir tempDewpointWater temp
2017-Dec-14 03:35N 01°15' E 104°03'217.6
2017-Dec-14 03:28N 01°15' E 104°01'816.5
2017-Dec-14 03:00N 01°13' E 103°54'510.8
2017-Dec-14 02:30N 01°13' E 103°48'4 8.5
2017-Dec-14 02:00N 01°17' E 103°47'0 0.2
2017-Dec-14 01:28N 01°17' E 103°47'0 0.0
2017-Dec-14 00:58N 01°17' E 103°47'0 0.0
2017-Dec-14 00:28N 01°17' E 103°47'0 0.0
2017-Dec-13 23:52N 01°17' E 103°47'0 0.0
2017-Dec-13 23:28N 01°17' E 103°47'0 0.0
2017-Dec-13 22:58N 01°17' E 103°47'0 0.0
2017-Dec-13 22:28N 01°17' E 103°47'0 0.0
2017-Dec-13 21:58N 01°17' E 103°47'0 0.0
2017-Dec-13 21:28N 01°17' E 103°47'0 0.0
2017-Dec-13 20:58N 01°17' E 103°47'0 0.0
2017-Dec-13 20:28N 01°17' E 103°47'0 0.0
2017-Dec-13 19:58N 01°17' E 103°47'0 0.0
2017-Dec-13 19:28N 01°17' E 103°47'0 0.0
2017-Dec-13 18:58N 01°17' E 103°47'0 0.0
2017-Dec-13 18:28N 01°17' E 103°47'0 0.0
2017-Dec-13 17:58N 01°17' E 103°47'0 0.0
2017-Dec-13 17:28N 01°17' E 103°47'0 0.0
2017-Dec-13 16:58N 01°17' E 103°47'0 0.0
2017-Dec-13 16:28N 01°17' E 103°47'0 0.0
2017-Dec-13 15:58N 01°17' E 103°47'0 0.0
2017-Dec-13 15:28N 01°17' E 103°47'0 0.0
2017-Dec-13 14:58N 01°17' E 103°47'0 0.0
2017-Dec-13 14:28N 01°17' E 103°47'0 0.0
2017-Dec-13 13:58N 01°17' E 103°47'0 0.0
2017-Dec-13 13:28N 01°17' E 103°47'0 0.0
2017-Dec-13 12:58N 01°17' E 103°47'0 0.0
2017-Dec-13 12:28N 01°17' E 103°47'0 0.0
2017-Dec-13 11:58N 01°17' E 103°47'0 0.0
2017-Dec-13 11:28N 01°17' E 103°47'0 0.0
2017-Dec-13 10:58N 01°17' E 103°47'0 0.0
2017-Dec-13 10:28N 01°17' E 103°47'0 0.0
2017-Dec-13 09:58N 01°17' E 103°47'0 0.0
2017-Dec-13 09:28N 01°17' E 103°47'0 0.0
2017-Dec-13 08:58N 01°17' E 103°47'0 0.0
2017-Dec-13 08:28N 01°17' E 103°47'0 0.0
2017-Dec-13 07:58N 01°17' E 103°47'0 0.0
2017-Dec-13 07:28N 01°17' E 103°47'0 0.0
2017-Dec-13 06:58N 01°17' E 103°47'0 0.0
2017-Dec-13 06:28N 01°17' E 103°47'0 0.0
2017-Dec-13 05:58N 01°17' E 103°47'0 0.0
2017-Dec-13 05:28N 01°17' E 103°47'0 0.0
2017-Dec-13 04:58N 01°17' E 103°47'0 0.0
2017-Dec-13 04:28N 01°17' E 103°47'0 0.0
2017-Dec-13 03:58N 01°17' E 103°47'0 0.0
2017-Dec-13 03:28N 01°17' E 103°47'0 0.0
2017-Dec-13 02:55N 01°17' E 103°47'0 0.0
2017-Dec-13 02:28N 01°17' E 103°47'0 0.0
2017-Dec-13 01:58N 01°17' E 103°47'0 0.0
2017-Dec-13 01:28N 01°17' E 103°47'0 0.0
2017-Dec-13 00:58N 01°17' E 103°47'0 0.0
2017-Dec-13 00:25N 01°17' E 103°47'0 0.0
2017-Dec-12 23:58N 01°17' E 103°47'0 0.0
2017-Dec-12 23:28N 01°17' E 103°47'0 0.0
2017-Dec-12 22:58N 01°17' E 103°47'0 0.0
2017-Dec-12 22:28N 01°17' E 103°47'0 0.0
2017-Dec-12 21:58N 01°17' E 103°47'0 0.0
2017-Dec-12 21:28N 01°17' E 103°47'0 0.0
2017-Dec-12 20:58N 01°17' E 103°47'0 0.0
2017-Dec-12 20:28N 01°17' E 103°47'0 0.2
2017-Dec-12 20:00N 01°17' E 103°47'1 2.3
2017-Dec-12 19:30N 01°15' E 103°46'3 5.8
2017-Dec-12 19:00N 01°15' E 103°44'510.6
2017-Dec-12 18:30N 01°12' E 103°39'4 7.2
2017-Dec-12 18:00N 01°12' E 103°35'2 4.2
2017-Dec-12 17:30N 01°11' E 103°33'2 4.2
2017-Dec-12 17:00N 01°10' E 103°32'3 5.4
2017-Dec-12 16:30N 01°09' E 103°29'3 6.5
2017-Dec-12 16:00N 01°11' E 103°26'3 6.7
2017-Dec-12 15:30N 01°13' E 103°24'3 6.6
2017-Dec-12 15:00N 01°15' E 103°21'3 5.9
2017-Dec-12 14:29N 01°17' E 103°19'3 7.0
2017-Dec-12 14:00N 01°19' E 103°16'  

Dump ship's entire track history